createdAt,value
2023-02-11T00:02:24.068Z,62.45
2023-02-11T00:04:51.265Z,65.03
2023-02-11T00:07:18.389Z,71.68
2023-02-11T00:09:45.572Z,73.40
2023-02-11T00:12:15.836Z,72.80
2023-02-11T00:14:42.942Z,72.85
2023-02-11T00:17:10.210Z,70.88
2023-02-11T00:19:37.415Z,71.78
2023-02-11T00:22:04.542Z,74.70
2023-02-11T00:24:31.833Z,75.28
2023-02-11T00:27:00.336Z,77.90
2023-02-11T00:29:27.506Z,75.50
2023-02-11T00:31:54.808Z,81.47
2023-02-11T00:34:22.034Z,70.72
2023-02-11T00:36:49.902Z,74.28
2023-02-11T00:39:17.017Z,72.95
2023-02-11T00:41:44.193Z,68.47
2023-02-11T00:44:13.421Z,77.25
2023-02-11T00:46:40.598Z,73.13
2023-02-11T00:49:19.498Z,74.10
2023-02-11T00:52:24.880Z,68.85
2023-02-11T00:55:13.506Z,71.80
2023-02-11T00:57:41.179Z,68.70
2023-02-11T01:00:08.929Z,70.93
2023-02-11T01:02:36.260Z,68.25
2023-02-11T01:05:03.965Z,65.50
2023-02-11T01:07:31.133Z,62.67
2023-02-11T01:09:58.527Z,65.85
2023-02-11T01:12:25.956Z,64.68
2023-02-11T01:14:55.555Z,67.60
2023-02-11T01:17:22.752Z,69.25
2023-02-11T01:19:51.220Z,67.18
2023-02-11T01:22:18.416Z,70.68
2023-02-11T01:24:45.978Z,70.13
2023-02-11T01:27:13.245Z,68.13
2023-02-11T01:29:40.614Z,66.10
2023-02-11T01:32:07.835Z,73.05
2023-02-11T01:34:34.953Z,67.35
2023-02-11T01:37:02.347Z,64.75
2023-02-11T01:39:29.517Z,62.50
2023-02-11T01:41:56.638Z,63.83
2023-02-11T01:44:31.589Z,68.90
2023-02-11T01:46:58.714Z,67.43
2023-02-11T01:49:31.327Z,68.70
2023-02-11T01:52:00.899Z,72.03
2023-02-11T01:54:49.446Z,70.25
2023-02-11T01:57:25.345Z,66.10
2023-02-11T01:59:59.331Z,71.55
2023-02-11T02:02:33.873Z,66.07
2023-02-11T02:05:05.152Z,67.32
2023-02-11T02:07:36.762Z,67.03
2023-02-11T02:10:06.682Z,74.85
2023-02-11T02:12:33.865Z,74.55
2023-02-11T02:15:12.489Z,70.38
2023-02-11T02:17:42.643Z,75.03
2023-02-11T02:20:28.532Z,67.03
2023-02-11T02:22:58.840Z,74.07
2023-02-11T02:25:36.348Z,69.78
2023-02-11T02:28:16.100Z,79.10
2023-02-11T02:30:46.310Z,77.37
2023-02-11T02:33:22.380Z,80.18
2023-02-11T02:35:56.025Z,79.38
2023-02-11T02:38:32.205Z,77.57
2023-02-11T02:41:11.131Z,82.00
2023-02-11T02:43:41.284Z,82.63
2023-02-11T02:46:15.927Z,76.60
2023-02-11T02:48:43.271Z,79.60
2023-02-11T02:51:30.556Z,78.93
2023-02-11T02:54:03.551Z,82.55
2023-02-11T02:56:48.375Z,85.28
2023-02-11T02:59:34.390Z,82.32
2023-02-11T03:02:11.047Z,76.65
2023-02-11T03:04:41.035Z,80.95
2023-02-11T03:07:08.167Z,83.20
2023-02-11T03:09:38.501Z,76.22
2023-02-11T03:12:07.030Z,73.20
2023-02-11T03:14:34.843Z,79.45
2023-02-11T03:17:04.281Z,84.90
2023-02-11T03:19:33.987Z,81.00
2023-02-11T03:22:03.377Z,76.33
2023-02-11T03:24:36.331Z,76.93
2023-02-11T03:27:23.713Z,82.18
2023-02-11T03:29:56.661Z,81.07
2023-02-11T03:32:31.659Z,79.00
2023-02-11T03:34:58.841Z,83.72
2023-02-11T03:37:33.848Z,82.97
2023-02-11T03:40:04.672Z,85.28
2023-02-11T03:42:41.586Z,87.25
2023-02-11T03:45:14.479Z,85.38
2023-02-11T03:47:44.444Z,79.03
2023-02-11T03:50:12.725Z,90.63
2023-02-11T03:52:40.040Z,94.43
2023-02-11T03:55:09.885Z,85.93
2023-02-11T03:57:37.490Z,80.80
2023-02-11T04:00:05.232Z,87.03
2023-02-11T04:02:33.833Z,86.65
2023-02-11T04:05:01.177Z,88.35
2023-02-11T04:07:28.451Z,84.68
2023-02-11T04:09:55.625Z,86.15
2023-02-11T04:12:22.995Z,89.50
2023-02-11T04:14:50.159Z,76.63
2023-02-11T04:17:19.752Z,78.25
2023-02-11T04:19:47.031Z,86.55
2023-02-11T04:22:14.391Z,82.32
2023-02-11T04:24:44.046Z,86.38
2023-02-11T04:27:11.277Z,77.70
2023-02-11T04:29:38.449Z,88.55
2023-02-11T04:32:05.654Z,84.95
2023-02-11T04:34:33.571Z,77.03
2023-02-11T04:37:00.710Z,89.47
2023-02-11T04:39:27.947Z,84.43
2023-02-11T04:41:55.167Z,76.35
2023-02-11T04:44:23.467Z,79.78
2023-02-11T04:46:50.770Z,85.72
2023-02-11T04:49:18.579Z,83.10
2023-02-11T04:51:48.936Z,75.93
2023-02-11T04:54:16.505Z,78.75
2023-02-11T04:56:43.906Z,79.70
2023-02-11T04:59:13.265Z,75.43
2023-02-11T05:01:41.057Z,71.75
2023-02-11T05:04:08.314Z,71.30
2023-02-11T05:06:35.677Z,72.32
2023-02-11T05:09:02.828Z,72.07
2023-02-11T05:11:30.287Z,72.22
2023-02-11T05:13:57.707Z,65.32
2023-02-11T05:16:25.163Z,72.22
2023-02-11T05:18:53.801Z,69.53
2023-02-11T05:21:21.160Z,69.75
2023-02-11T05:23:48.619Z,64.00
2023-02-11T05:26:16.203Z,69.82
2023-02-11T05:28:44.933Z,68.82
2023-02-11T05:31:14.827Z,72.72
2023-02-11T05:33:42.341Z,69.95
2023-02-11T05:36:11.933Z,66.70
2023-02-11T05:38:39.477Z,74.60
2023-02-11T05:41:08.095Z,62.85
2023-02-11T05:43:35.919Z,68.00
2023-02-11T05:46:03.767Z,68.82
2023-02-11T05:48:31.284Z,63.63
2023-02-11T05:50:59.610Z,61.88
2023-02-11T05:53:26.815Z,72.20
2023-02-11T05:55:53.957Z,64.82
2023-02-11T05:58:21.497Z,75.75
2023-02-11T06:00:49.200Z,68.70
2023-02-11T06:03:16.408Z,64.88
2023-02-11T06:05:44.360Z,66.95
2023-02-11T06:08:11.621Z,66.32
2023-02-11T06:10:43.112Z,73.10
2023-02-11T06:13:10.207Z,64.40
2023-02-11T06:15:38.727Z,67.20
2023-02-11T06:18:05.992Z,77.50
2023-02-11T06:20:33.105Z,66.55
2023-02-11T06:23:00.358Z,73.80
2023-02-11T06:25:27.818Z,69.25
2023-02-11T06:27:55.191Z,72.25
2023-02-11T06:30:22.479Z,69.38
2023-02-11T06:32:51.158Z,70.30
2023-02-11T06:35:18.353Z,73.38
2023-02-11T06:37:45.596Z,65.45
2023-02-11T06:40:13.053Z,63.35
2023-02-11T06:42:41.807Z,72.85
2023-02-11T06:45:13.266Z,72.22
2023-02-11T06:47:40.983Z,72.45
2023-02-11T06:50:23.253Z,76.60
2023-02-11T06:52:50.375Z,72.63
2023-02-11T06:55:17.588Z,67.50
2023-02-11T06:57:46.162Z,71.00
2023-02-11T07:00:14.929Z,74.88
2023-02-11T07:02:42.204Z,77.15
2023-02-11T07:05:10.582Z,73.30
2023-02-11T07:07:38.010Z,74.50
2023-02-11T07:10:05.909Z,75.97
2023-02-11T07:12:33.211Z,78.75
2023-02-11T07:15:00.510Z,68.05
2023-02-11T07:17:27.633Z,69.82
2023-02-11T07:19:54.811Z,67.57
2023-02-11T07:22:21.993Z,65.32
2023-02-11T07:24:49.095Z,73.80
2023-02-11T07:27:16.229Z,68.80
2023-02-11T07:29:43.979Z,61.10
2023-02-11T07:32:11.134Z,69.72
2023-02-11T07:34:38.559Z,71.82
2023-02-11T07:37:05.788Z,68.95
2023-02-11T07:39:33.089Z,67.13
2023-02-11T07:42:00.244Z,67.28
2023-02-11T07:44:28.146Z,70.75
2023-02-11T07:46:56.863Z,64.25
2023-02-11T07:49:24.012Z,63.38
2023-02-11T07:51:51.505Z,64.90
2023-02-11T07:54:18.861Z,64.00
2023-02-11T07:56:46.042Z,55.22
2023-02-11T07:59:13.314Z,63.60
2023-02-11T08:01:40.427Z,56.72
2023-02-11T08:04:07.597Z,55.58
2023-02-11T08:06:35.602Z,62.92
2023-02-11T08:09:07.327Z,58.50
2023-02-11T08:11:34.674Z,56.20
2023-02-11T08:14:01.915Z,57.92
2023-02-11T08:16:31.180Z,54.88
2023-02-11T08:18:59.749Z,57.33
2023-02-11T08:21:27.032Z,58.38
2023-02-11T08:23:54.486Z,56.65
2023-02-11T08:26:23.007Z,61.95
2023-02-11T08:28:51.034Z,54.05
2023-02-11T08:31:23.101Z,50.95
2023-02-11T08:33:50.694Z,56.83
2023-02-11T08:36:21.764Z,56.08
2023-02-11T08:38:48.961Z,52.78
2023-02-11T08:41:16.781Z,53.67
2023-02-11T08:43:45.636Z,56.90
2023-02-11T08:46:15.024Z,55.38
2023-02-11T08:48:42.209Z,55.47
2023-02-11T08:51:10.368Z,52.90
2023-02-11T08:53:37.841Z,59.17
2023-02-11T08:56:06.897Z,58.03
2023-02-11T08:58:33.986Z,52.28
2023-02-11T09:01:01.128Z,52.33
2023-02-11T09:03:28.428Z,53.05
2023-02-11T09:05:56.930Z,53.95
2023-02-11T09:08:24.174Z,49.65
2023-02-11T09:10:51.535Z,48.67
2023-02-11T09:13:18.812Z,55.80
2023-02-11T09:15:46.953Z,51.05
2023-02-11T09:18:14.290Z,56.17
2023-02-11T09:20:41.614Z,46.72
2023-02-11T09:23:08.737Z,55.28
2023-02-11T09:25:35.908Z,50.42
2023-02-11T09:28:03.016Z,48.50
2023-02-11T09:30:30.288Z,49.33
2023-02-11T09:32:57.467Z,53.53
2023-02-11T09:35:24.533Z,49.80
2023-02-11T09:37:51.749Z,51.45
2023-02-11T09:40:20.038Z,53.08
2023-02-11T09:42:55.301Z,48.08
2023-02-11T09:45:25.163Z,51.88
2023-02-11T09:48:00.123Z,46.40
2023-02-11T09:50:35.189Z,53.17
2023-02-11T09:53:04.169Z,52.92
2023-02-11T09:55:41.966Z,46.88
2023-02-11T09:58:13.740Z,46.85
2023-02-11T10:00:43.827Z,49.70
2023-02-11T10:03:13.851Z,50.72
2023-02-11T10:05:49.815Z,50.65
2023-02-11T10:08:42.908Z,49.08
2023-02-11T10:11:30.571Z,49.38
2023-02-11T10:14:01.842Z,48.00
2023-02-11T10:16:46.991Z,47.58
2023-02-11T10:19:19.083Z,54.53
2023-02-11T10:22:04.779Z,52.38
2023-02-11T10:24:32.065Z,51.55
2023-02-11T10:26:59.804Z,51.33
2023-02-11T10:29:39.344Z,49.15
2023-02-11T10:32:41.959Z,46.97
2023-02-11T10:35:21.386Z,46.13
2023-02-11T10:37:48.697Z,50.92
2023-02-11T10:40:17.516Z,50.08
2023-02-11T10:42:47.721Z,54.67
2023-02-11T10:45:22.245Z,49.72
2023-02-11T10:47:49.471Z,50.30
2023-02-11T10:50:25.595Z,55.35
2023-02-11T10:52:53.234Z,45.00
2023-02-11T10:55:22.656Z,45.30
2023-02-11T10:58:14.908Z,48.53
2023-02-11T11:00:57.844Z,49.40
2023-02-11T11:10:44.532Z,49.67
2023-02-11T11:13:38.352Z,49.25
2023-02-11T11:16:09.249Z,48.83
2023-02-11T11:18:40.675Z,53.55
2023-02-11T11:21:14.495Z,51.55
2023-02-11T11:24:27.986Z,51.70
2023-02-11T11:30:04.764Z,50.80
2023-02-11T11:32:33.040Z,57.45
2023-02-11T11:35:02.788Z,56.20
2023-02-11T11:37:32.057Z,55.83
2023-02-11T11:40:14.517Z,55.08
2023-02-11T11:42:41.778Z,52.92
2023-02-11T11:45:23.486Z,52.20
2023-02-11T11:47:54.997Z,51.80
2023-02-11T11:50:28.260Z,51.25
2023-02-11T11:52:57.855Z,50.10
2023-02-11T11:55:32.321Z,54.75
2023-02-11T11:57:59.416Z,45.10
2023-02-11T12:00:35.919Z,46.58
2023-02-11T12:03:21.832Z,45.00
2023-02-11T12:06:04.186Z,52.70
2023-02-11T12:08:38.320Z,46.95
2023-02-11T12:11:14.761Z,51.00
2023-02-11T12:13:45.544Z,49.35
2023-02-11T12:16:13.938Z,50.25
2023-02-11T12:18:51.158Z,47.97
2023-02-11T12:21:31.009Z,51.72
2023-02-11T12:24:16.961Z,53.15
2023-02-11T12:26:47.497Z,48.80
2023-02-11T12:29:21.330Z,50.50
2023-02-11T12:32:09.601Z,53.83
2023-02-11T12:34:42.781Z,51.35
2023-02-11T12:37:18.795Z,51.13
2023-02-11T12:39:57.826Z,51.28
2023-02-11T12:42:49.459Z,49.15
2023-02-11T12:45:35.911Z,50.22
2023-02-11T12:48:22.883Z,51.08
2023-02-11T12:50:59.260Z,63.30
2023-02-11T12:53:38.345Z,48.75
2023-02-11T12:56:07.222Z,54.00
2023-02-11T12:58:44.830Z,53.20
2023-02-11T13:01:33.007Z,60.10
2023-02-11T13:04:09.175Z,54.17
2023-02-11T13:06:41.916Z,54.70
2023-02-11T13:09:16.644Z,54.75
2023-02-11T13:11:54.268Z,53.20
2023-02-11T13:14:32.800Z,53.83
2023-02-11T13:17:00.437Z,60.28
2023-02-11T13:19:27.665Z,54.65
2023-02-11T13:22:11.439Z,59.53
2023-02-11T13:24:49.103Z,58.53
2023-02-11T13:27:16.382Z,58.63
2023-02-11T13:30:04.600Z,54.97
2023-02-11T13:32:51.116Z,58.53
2023-02-11T13:35:41.506Z,56.70
2023-02-11T13:38:21.732Z,60.22
2023-02-11T13:41:06.071Z,56.33
2023-02-11T13:43:37.269Z,59.22
2023-02-11T13:46:05.787Z,58.35
2023-02-11T13:48:37.623Z,62.60
2023-02-11T13:51:11.697Z,64.10
2023-02-11T13:53:56.425Z,62.22
2023-02-11T13:56:42.671Z,66.93
2023-02-11T13:59:30.581Z,64.13
2023-02-11T14:02:19.279Z,66.97
2023-02-11T14:05:23.135Z,63.60
2023-02-11T14:08:32.551Z,61.35
2023-02-11T14:11:18.345Z,65.70
2023-02-11T14:13:48.652Z,68.57
2023-02-11T14:16:22.685Z,71.22
2023-02-11T14:18:55.375Z,72.75
2023-02-11T14:21:32.277Z,72.93
2023-02-11T14:24:04.268Z,67.53
2023-02-11T14:26:37.222Z,79.82
2023-02-11T14:29:08.706Z,79.68
2023-02-11T14:31:42.735Z,76.53
2023-02-11T14:34:33.492Z,69.70
2023-02-11T14:37:14.861Z,79.88
2023-02-11T14:39:42.259Z,74.28
2023-02-11T14:42:17.399Z,72.72
2023-02-11T14:44:44.612Z,66.25
2023-02-11T14:47:19.244Z,76.82
2023-02-11T14:49:46.609Z,73.00
2023-02-11T14:52:23.825Z,81.82
2023-02-11T14:54:51.967Z,80.25
2023-02-11T14:57:20.118Z,86.32
2023-02-11T14:59:55.588Z,85.65
2023-02-11T15:02:24.396Z,70.15
2023-02-11T15:04:51.546Z,80.30
2023-02-11T15:07:18.917Z,84.50
2023-02-11T15:09:51.617Z,68.13
2023-02-11T15:12:24.361Z,76.32
2023-02-11T15:14:53.578Z,89.00
2023-02-11T15:17:22.821Z,89.15
2023-02-11T15:19:53.229Z,88.05
2023-02-11T15:22:22.805Z,84.43
2023-02-11T15:25:04.156Z,90.32
2023-02-11T15:27:39.270Z,80.70
2023-02-11T15:30:20.973Z,82.07
2023-02-11T15:32:48.791Z,78.82
2023-02-11T15:35:15.951Z,82.47
2023-02-11T15:37:45.235Z,83.13
2023-02-11T15:40:15.648Z,80.95
2023-02-11T15:42:54.243Z,87.22
2023-02-11T15:45:25.997Z,89.82
2023-02-11T15:47:56.676Z,81.18
2023-02-11T15:52:55.656Z,72.45
2023-02-11T15:55:23.233Z,88.47
2023-02-11T15:57:53.216Z,89.00
2023-02-11T16:00:24.137Z,86.07
2023-02-11T16:02:53.783Z,95.38
2023-02-11T16:05:26.978Z,92.38
2023-02-11T16:08:06.595Z,86.25
2023-02-11T16:10:59.782Z,91.53
2023-02-11T16:13:37.030Z,90.18
2023-02-11T16:16:19.812Z,89.82
2023-02-11T16:19:05.227Z,83.50
2023-02-11T16:21:46.898Z,83.32
2023-02-11T16:24:35.183Z,89.70
2023-02-11T16:27:04.446Z,95.13
2023-02-11T16:29:32.999Z,88.43
2023-02-11T16:32:11.005Z,89.90
2023-02-11T16:34:38.296Z,95.15
2023-02-11T16:37:06.401Z,91.15
2023-02-11T16:39:33.855Z,90.70
2023-02-11T16:42:01.557Z,94.28
2023-02-11T16:44:29.168Z,88.97
2023-02-11T16:47:00.209Z,92.68
2023-02-11T16:49:29.214Z,98.30
2023-02-11T16:52:01.054Z,92.80
2023-02-11T16:54:29.085Z,91.68
2023-02-11T16:56:56.596Z,100.93
2023-02-11T16:59:24.002Z,99.47
2023-02-11T17:01:52.808Z,101.95
2023-02-11T17:04:21.960Z,107.65
2023-02-11T17:06:49.197Z,97.20
2023-02-11T17:09:18.827Z,96.85
2023-02-11T17:11:46.006Z,91.38
2023-02-11T17:14:13.211Z,88.72
2023-02-11T17:16:40.397Z,95.00
2023-02-11T17:19:07.844Z,100.35
2023-02-11T17:21:36.193Z,90.88
2023-02-11T17:24:03.522Z,95.43
2023-02-11T17:26:30.705Z,99.30
2023-02-11T17:29:00.574Z,151.80
2023-02-11T17:31:27.897Z,103.32
2023-02-11T17:33:55.037Z,121.97
2023-02-11T17:36:23.212Z,119.40
2023-02-11T17:38:52.267Z,95.95
2023-02-11T17:41:19.405Z,153.00
2023-02-11T17:43:46.647Z,243.23
2023-02-11T17:46:15.343Z,156.10
2023-02-11T17:48:42.591Z,191.75
2023-02-11T17:51:26.666Z,134.98
2023-02-11T17:53:54.128Z,173.63
2023-02-11T17:56:21.501Z,133.55
2023-02-11T17:58:48.684Z,118.00
2023-02-11T18:01:16.901Z,134.45
2023-02-11T18:03:44.328Z,95.30
2023-02-11T18:06:12.182Z,103.78
2023-02-11T18:08:39.315Z,97.25
2023-02-11T18:11:11.824Z,109.10
2023-02-11T18:13:39.101Z,107.57
2023-02-11T18:16:08.567Z,97.25
2023-02-11T18:18:36.165Z,110.50
2023-02-11T18:21:04.159Z,94.28
2023-02-11T18:23:31.428Z,103.20
2023-02-11T18:25:58.556Z,97.93
2023-02-11T18:28:25.837Z,96.40
2023-02-11T18:30:59.589Z,101.65
2023-02-11T18:33:27.228Z,117.30
2023-02-11T18:35:54.407Z,279.25
2023-02-11T18:38:22.773Z,244.98
2023-02-11T18:40:50.570Z,194.27
2023-02-11T18:43:17.994Z,100.43
2023-02-11T18:45:45.895Z,96.53
2023-02-11T18:48:14.106Z,169.95
2023-02-11T18:50:42.602Z,118.18
2023-02-11T18:53:09.950Z,136.57
2023-02-11T18:55:39.161Z,124.50
2023-02-11T18:58:06.457Z,104.43
2023-02-11T19:00:36.140Z,91.95
2023-02-11T19:03:03.279Z,93.83
2023-02-11T19:05:33.373Z,84.47
2023-02-11T19:08:01.287Z,94.35
2023-02-11T19:10:29.022Z,87.88
2023-02-11T19:12:58.962Z,98.13
2023-02-11T19:15:27.167Z,77.72
2023-02-11T19:17:58.567Z,83.55
2023-02-11T19:20:25.819Z,94.53
2023-02-11T19:22:53.206Z,85.93
2023-02-11T19:25:20.455Z,87.68
2023-02-11T19:27:47.593Z,75.85
2023-02-11T19:30:14.884Z,99.53
2023-02-11T19:32:49.897Z,90.53
2023-02-11T19:35:17.162Z,98.65
2023-02-11T19:37:45.772Z,96.53
2023-02-11T19:40:13.327Z,81.03
2023-02-11T19:42:40.449Z,81.57
2023-02-11T19:45:07.955Z,108.95
2023-02-11T19:47:35.345Z,106.30
2023-02-11T19:50:02.892Z,130.18
2023-02-11T19:52:29.998Z,112.68
2023-02-11T19:54:57.140Z,92.70
2023-02-11T19:57:33.122Z,93.45
2023-02-11T20:00:01.371Z,144.50
2023-02-11T20:02:56.128Z,105.10
2023-02-11T20:05:25.818Z,101.00
2023-02-11T20:07:53.639Z,89.90
2023-02-11T20:10:21.034Z,89.82
2023-02-11T20:12:48.370Z,94.43
2023-02-11T20:15:16.733Z,101.80
2023-02-11T20:17:43.927Z,99.25
2023-02-11T20:20:13.472Z,103.90
2023-02-11T20:22:40.644Z,88.35
2023-02-11T20:25:07.883Z,96.10
2023-02-11T20:27:35.130Z,82.63
2023-02-11T20:30:02.268Z,86.97
2023-02-11T20:32:32.830Z,100.07
2023-02-11T20:37:28.993Z,78.20
2023-02-11T20:39:59.210Z,82.45
2023-02-11T20:42:28.924Z,84.38
2023-02-11T20:44:56.544Z,76.32
2023-02-11T20:47:37.365Z,85.85
2023-02-11T20:50:07.945Z,83.40
2023-02-11T20:52:36.524Z,80.80
2023-02-11T20:55:06.985Z,92.03
2023-02-11T20:57:39.045Z,78.25
2023-02-11T21:00:07.120Z,80.88
2023-02-11T21:02:36.747Z,81.20
2023-02-11T21:05:05.579Z,82.18
2023-02-11T21:07:33.933Z,83.65
2023-02-11T21:10:10.461Z,69.25
2023-02-11T21:12:43.651Z,79.32
2023-02-11T21:15:14.450Z,67.90
2023-02-11T21:17:43.161Z,85.07
2023-02-11T21:20:31.088Z,75.43
2023-02-11T21:22:59.600Z,82.15
2023-02-11T21:25:27.267Z,80.88
2023-02-11T21:27:56.451Z,76.25
2023-02-11T21:30:26.887Z,86.00
2023-02-11T21:33:06.904Z,81.20
2023-02-11T21:35:36.415Z,81.10
2023-02-11T21:38:06.729Z,91.47
2023-02-11T21:40:35.969Z,82.45
2023-02-11T21:43:03.629Z,71.13
2023-02-11T21:45:33.073Z,73.72
2023-02-11T21:48:01.523Z,71.43
2023-02-11T21:50:28.954Z,73.03
2023-02-11T21:52:58.019Z,75.30
2023-02-11T21:55:28.150Z,74.57
2023-02-11T21:58:01.754Z,70.60
2023-02-11T22:07:24.326Z,69.10
2023-02-11T22:09:53.870Z,69.32
2023-02-11T22:12:21.280Z,63.42
2023-02-11T22:14:48.440Z,57.60
2023-02-11T22:17:15.584Z,57.08
2023-02-11T22:19:42.837Z,60.33
2023-02-11T22:22:09.973Z,56.10
2023-02-11T22:24:37.196Z,56.03
2023-02-11T22:27:05.718Z,59.35
2023-02-11T22:29:32.913Z,58.03
2023-02-11T22:32:00.277Z,61.13
2023-02-11T22:34:27.445Z,66.72
2023-02-11T22:36:54.646Z,62.78
2023-02-11T22:39:21.913Z,66.28
2023-02-11T22:41:49.508Z,69.70
2023-02-11T22:44:17.368Z,69.65
2023-02-11T22:46:46.394Z,69.07
2023-02-11T22:49:20.037Z,68.95
2023-02-11T22:51:48.020Z,68.63
2023-02-11T22:54:19.778Z,64.18
2023-02-11T22:56:50.613Z,66.63
2023-02-11T22:59:19.968Z,70.38
2023-02-11T23:01:47.445Z,70.82
2023-02-11T23:04:16.090Z,66.85
2023-02-11T23:06:43.893Z,70.25
2023-02-11T23:09:14.564Z,67.75
2023-02-11T23:11:41.918Z,70.22
2023-02-11T23:14:12.168Z,77.68
2023-02-11T23:16:39.534Z,77.32
2023-02-11T23:19:08.618Z,71.28
2023-02-11T23:21:37.094Z,72.43
2023-02-11T23:24:14.396Z,69.68
2023-02-11T23:26:42.913Z,68.30
2023-02-11T23:29:10.687Z,69.97
2023-02-11T23:31:39.902Z,81.57
2023-02-11T23:34:07.620Z,73.80
2023-02-11T23:36:34.913Z,84.00
2023-02-11T23:39:02.351Z,81.40
2023-02-11T23:41:29.652Z,85.95
2023-02-11T23:43:58.083Z,78.95
2023-02-11T23:46:28.620Z,76.35
2023-02-11T23:48:56.129Z,78.85
2023-02-11T23:51:23.832Z,73.50
2023-02-11T23:53:52.029Z,78.82
2023-02-11T23:56:20.619Z,69.72
2023-02-11T23:58:51.531Z,56.95
